Time;durP1;ratioP1;P1;durP2;ratioP2;P2;SDS_P1;SDS_P2;PMS_P1;PMS_P2;Temp;Humidity;BMP_temperature;BMP_pressure;BME280_temperature;BME280_humidity;BME280_pressure;Samples;Min_cycle;Max_cycle;Signal;HPM_P1;HPM_P2
2023/11/11 00:00:09;;;;;;;35.93;24.77;;;8.30;3.50;;;;;;4967209;28;20213;-86
2023/11/11 00:02:35;;;;;;;35.28;24.15;;;8.30;3.10;;;;;;4954353;29;20196;-85
2023/11/11 00:05:00;;;;;;;39.23;25.57;;;8.30;2.70;;;;;;4950987;29;20181;-87
2023/11/11 00:07:26;;;;;;;33.50;25.33;;;8.30;2.40;;;;;;4948588;29;20454;-86
2023/11/11 00:09:53;;;;;;;37.90;25.30;;;8.30;3.80;;;;;;4954176;29;20236;-86
2023/11/11 00:12:18;;;;;;;35.33;24.50;;;8.20;3.00;;;;;;4952648;28;20178;-86
2023/11/11 00:14:44;;;;;;;36.50;25.43;;;8.20;4.10;;;;;;4952452;29;20451;-86
2023/11/11 00:17:09;;;;;;;35.70;25.53;;;8.30;5.00;;;;;;4946050;29;20217;-86
2023/11/11 00:19:36;;;;;;;33.27;23.33;;;8.20;5.10;;;;;;4944289;29;20209;-86
2023/11/11 00:22:02;;;;;;;32.80;23.80;;;8.20;8.00;;;;;;4951994;28;20268;-86
2023/11/11 00:24:27;;;;;;;35.67;25.02;;;8.30;10.70;;;;;;4953566;29;20448;-87
2023/11/11 00:26:53;;;;;;;40.63;26.90;;;8.30;8.90;;;;;;4945668;29;20206;-86
2023/11/11 00:29:18;;;;;;;40.10;25.60;;;8.30;9.00;;;;;;4942782;29;20261;-86
2023/11/11 00:31:46;;;;;;;38.60;26.13;;;8.20;9.20;;;;;;4963356;28;20182;-86
2023/11/11 00:34:13;;;;;;;51.15;27.00;;;8.20;14.30;;;;;;4954298;28;20202;-86
2023/11/11 00:36:42;;;;;;;36.22;24.45;;;8.30;14.80;;;;;;4952964;28;20342;-85
2023/11/11 00:39:10;;;;;;;37.38;26.60;;;8.30;14.40;;;;;;4951320;29;20182;-86
2023/11/11 00:41:37;;;;;;;35.67;24.10;;;8.30;14.30;;;;;;4948511;29;20745;-86
2023/11/11 00:44:08;;;;;;;32.80;24.33;;;8.30;13.90;;;;;;4953294;29;20177;-86
2023/11/11 00:46:37;;;;;;;34.83;22.50;;;8.30;12.70;;;;;;4956949;29;20213;-86
2023/11/11 00:49:02;;;;;;;29.57;23.60;;;8.30;11.10;;;;;;4953735;29;21246;-87
2023/11/11 00:51:28;;;;;;;31.10;21.90;;;8.30;10.90;;;;;;4951551;29;20453;-86
2023/11/11 00:53:53;;;;;;;33.80;23.37;;;8.30;10.50;;;;;;4968220;28;20193;-85
2023/11/11 00:56:20;;;;;;;32.83;24.53;;;8.30;8.30;;;;;;4956522;29;20193;-87
2023/11/11 00:58:46;;;;;;;31.35;22.00;;;8.20;7.30;;;;;;4957365;29;20189;-85
2023/11/11 01:01:11;;;;;;;32.53;22.73;;;8.20;9.20;;;;;;4960918;29;20217;-85
2023/11/11 01:03:37;;;;;;;32.13;22.00;;;8.20;11.20;;;;;;4960272;29;20189;-85
2023/11/11 01:06:03;;;;;;;29.43;21.07;;;8.10;11.70;;;;;;4957303;29;20240;-85
2023/11/11 01:08:28;;;;;;;28.40;20.60;;;8.10;13.20;;;;;;4959415;29;20233;-86
2023/11/11 01:10:55;;;;;;;31.03;20.50;;;8.10;12.50;;;;;;4965058;29;20193;-88
2023/11/11 01:13:20;;;;;;;30.50;19.98;;;8.10;13.70;;;;;;4959046;28;20200;-85
2023/11/11 01:15:48;;;;;;;31.37;19.30;;;8.00;16.30;;;;;;4955769;28;20646;-87
2023/11/11 01:18:14;;;;;;;26.53;18.70;;;8.00;16.30;;;;;;4956176;29;20217;-87
2023/11/11 01:20:40;;;;;;;27.50;18.90;;;8.00;16.70;;;;;;4960722;28;20479;-87
2023/11/11 01:23:05;;;;;;;24.40;17.33;;;8.00;16.90;;;;;;4963754;29;20201;-87
2023/11/11 01:25:32;;;;;;;26.43;18.27;;;7.90;16.70;;;;;;4950571;29;20194;-87
2023/11/11 01:27:57;;;;;;;25.00;18.05;;;7.90;16.50;;;;;;4957648;29;20214;-87
2023/11/11 01:30:23;;;;;;;21.77;14.43;;;7.90;18.40;;;;;;4962788;29;20202;-87
2023/11/11 01:32:51;;;;;;;25.67;15.82;;;7.90;19.60;;;;;;4952396;28;20213;-88
2023/11/11 01:35:17;;;;;;;26.48;16.67;;;7.90;20.20;;;;;;4964916;28;20240;-87
2023/11/11 01:37:42;;;;;;;23.90;14.70;;;7.90;20.60;;;;;;4960287;29;20218;-86
2023/11/11 01:40:08;;;;;;;20.40;14.90;;;7.90;19.70;;;;;;4961841;29;20477;-88
2023/11/11 01:42:34;;;;;;;24.47;15.20;;;7.90;18.00;;;;;;4958073;28;20552;-88
2023/11/11 01:45:00;;;;;;;23.50;15.95;;;7.90;17.40;;;;;;4964617;29;20509;-87
2023/11/11 01:47:25;;;;;;;24.37;17.83;;;7.90;16.00;;;;;;4954253;28;20237;-86
2023/11/11 01:49:51;;;;;;;30.70;17.60;;;7.80;15.60;;;;;;4951602;29;20257;-86
2023/11/11 01:52:17;;;;;;;28.67;19.53;;;7.80;14.60;;;;;;4958114;29;20193;-86
2023/11/11 01:54:43;;;;;;;27.23;18.60;;;7.80;12.50;;;;;;4962719;28;20189;-86
2023/11/11 01:57:09;;;;;;;27.23;18.73;;;7.80;12.80;;;;;;4967031;29;20216;-85
2023/11/11 01:59:37;;;;;;;26.70;18.60;;;7.80;11.20;;;;;;4949898;28;20293;-86
2023/11/11 02:02:04;;;;;;;26.10;15.20;;;7.70;10.00;;;;;;4949694;29;20601;-86
2023/11/11 02:04:29;;;;;;;32.22;17.35;;;7.70;12.20;;;;;;4975763;28;20208;-86
2023/11/11 02:06:55;;;;;;;27.50;16.60;;;7.70;17.70;;;;;;4949252;29;20202;-86
2023/11/11 02:09:24;;;;;;;29.02;16.60;;;7.70;21.10;;;;;;4973336;28;20553;-85
2023/11/11 02:11:56;;;;;;;28.90;16.90;;;7.70;22.40;;;;;;4955658;29;20181;-85
2023/11/11 02:14:22;;;;;;;35.03;20.30;;;7.80;23.90;;;;;;4959888;28;20441;-85
2023/11/11 02:16:48;;;;;;;30.92;18.98;;;7.80;25.80;;;;;;4954180;29;20589;-86
2023/11/11 02:19:13;;;;;;;30.13;18.93;;;7.80;23.90;;;;;;4960692;29;20205;-85
2023/11/11 02:21:39;;;;;;;21.87;16.30;;;7.80;24.10;;;;;;4957727;28;20196;-85
2023/11/11 02:24:06;;;;;;;27.90;18.00;;;7.80;23.10;;;;;;4957742;29;20254;-86
2023/11/11 02:26:32;;;;;;;27.13;17.27;;;7.90;22.70;;;;;;4956165;28;20205;-85
2023/11/11 02:28:57;;;;;;;26.33;17.50;;;7.90;24.00;;;;;;4950500;28;20215;-85
2023/11/11 02:31:23;;;;;;;29.57;17.07;;;7.90;23.00;;;;;;4951288;29;20197;-86
2023/11/11 02:33:48;;;;;;;23.73;15.43;;;7.90;17.90;;;;;;4954255;29;20201;-86
2023/11/11 02:36:14;;;;;;;24.50;15.70;;;7.90;11.90;;;;;;4961311;29;20601;-86
2023/11/11 02:38:40;;;;;;;26.70;15.40;;;7.80;11.80;;;;;;4954612;29;20213;-85
2023/11/11 02:41:06;;;;;;;28.50;17.47;;;7.80;14.20;;;;;;4957887;29;20216;-85
2023/11/11 02:43:31;;;;;;;22.40;15.23;;;7.80;18.00;;;;;;4956950;29;20445;-86
2023/11/11 02:45:58;;;;;;;29.17;17.40;;;7.90;18.80;;;;;;4947733;29;20213;-86
2023/11/11 02:48:23;;;;;;;24.88;13.93;;;7.90;16.60;;;;;;4947145;28;20257;-85
2023/11/11 02:50:49;;;;;;;23.57;15.00;;;7.90;13.80;;;;;;4951976;28;20232;-87
2023/11/11 02:53:14;;;;;;;27.13;14.70;;;7.90;13.60;;;;;;4954347;29;20201;-85
2023/11/11 02:55:40;;;;;;;22.50;13.50;;;7.90;17.10;;;;;;4953561;28;20205;-85
2023/11/11 02:58:06;;;;;;;19.87;11.53;;;7.90;14.10;;;;;;4967838;28;20222;-86
2023/11/11 03:00:32;;;;;;;18.67;11.53;;;7.90;12.20;;;;;;4955895;29;20228;-85
2023/11/11 03:02:57;;;;;;;14.50;10.60;;;8.00;6.20;;;;;;4958130;29;20437;-86
2023/11/11 03:05:23;;;;;;;15.73;10.30;;;8.00;2.20;;;;;;4973014;28;20186;-86
2023/11/11 03:07:49;;;;;;;22.10;10.88;;;8.00;1.00;;;;;;4947735;29;20206;-85
2023/11/11 03:10:15;;;;;;;15.90;9.43;;;8.00;1.00;;;;;;4955251;29;20186;-85
2023/11/11 03:12:41;;;;;;;15.50;8.80;;;7.90;1.00;;;;;;4951985;28;20245;-86
2023/11/11 03:15:08;;;;;;;13.88;8.65;;;8.00;1.00;;;;;;4960851;29;20183;-85
2023/11/11 03:17:33;;;;;;;13.43;8.23;;;8.00;1.00;;;;;;4960723;28;20265;-87
2023/11/11 03:19:59;;;;;;;22.10;8.70;;;8.00;1.00;;;;;;4960768;29;20631;-85
2023/11/11 03:22:25;;;;;;;11.90;7.60;;;7.90;1.00;;;;;;4956009;28;20190;-87
2023/11/11 03:24:50;;;;;;;14.97;7.37;;;7.90;1.00;;;;;;4963032;29;20221;-85
2023/11/11 03:27:16;;;;;;;14.27;7.63;;;7.90;1.00;;;;;;4955834;29;20511;-84
2023/11/11 03:29:42;;;;;;;9.97;6.63;;;7.80;1.00;;;;;;4963753;29;20201;-85
2023/11/11 03:32:07;;;;;;;11.87;7.30;;;7.80;1.00;;;;;;4957115;29;20217;-89
2023/11/11 03:34:33;;;;;;;14.03;8.27;;;7.80;1.00;;;;;;4957467;28;20248;-88
2023/11/11 03:36:59;;;;;;;14.30;8.70;;;7.80;1.00;;;;;;4978187;28;20245;-86
2023/11/11 03:39:25;;;;;;;14.43;7.67;;;7.80;1.00;;;;;;4958154;28;20226;-87
2023/11/11 03:41:51;;;;;;;11.65;6.60;;;7.80;1.00;;;;;;4953231;29;20273;-87
2023/11/11 03:44:16;;;;;;;14.07;6.60;;;7.80;1.00;;;;;;4973566;28;20184;-86
2023/11/11 03:46:42;;;;;;;8.67;5.00;;;7.80;1.00;;;;;;4964023;28;20552;-86
2023/11/11 03:49:08;;;;;;;11.93;4.90;;;7.80;1.00;;;;;;4954334;29;20177;-88
2023/11/11 03:51:33;;;;;;;15.73;6.23;;;7.90;1.00;;;;;;4953471;29;20853;-86
2023/11/11 03:53:59;;;;;;;13.40;5.17;;;7.90;1.00;;;;;;4951123;29;20186;-86
2023/11/11 03:56:24;;;;;;;8.73;5.30;;;7.90;1.00;;;;;;4953923;29;20182;-85
2023/11/11 03:58:50;;;;;;;7.87;5.17;;;7.90;1.00;;;;;;4956161;28;20284;-85
2023/11/11 04:01:16;;;;;;;9.23;5.33;;;7.90;1.00;;;;;;4960967;29;20236;-86
2023/11/11 04:03:43;;;;;;;8.00;5.90;;;7.90;1.00;;;;;;4972550;28;20445;-85
2023/11/11 04:06:09;;;;;;;12.50;6.90;;;7.90;1.00;;;;;;4955509;28;20438;-86
2023/11/11 04:08:36;;;;;;;9.48;6.43;;;7.90;1.00;;;;;;4964010;28;20256;-86
2023/11/11 04:11:06;;;;;;;9.73;6.40;;;7.90;1.00;;;;;;4965637;29;20190;-87
2023/11/11 04:13:35;;;;;;;7.97;5.40;;;7.90;1.00;;;;;;4968743;28;20190;-85
2023/11/11 04:16:01;;;;;;;7.47;5.00;;;8.00;1.00;;;;;;4962718;29;20441;-86
2023/11/11 04:18:27;;;;;;;9.25;4.90;;;8.00;1.00;;;;;;4962613;29;20225;-85
2023/11/11 04:20:52;;;;;;;8.93;5.27;;;8.00;1.00;;;;;;4960282;29;20232;-85
2023/11/11 04:23:20;;;;;;;8.40;4.50;;;8.00;1.00;;;;;;4965097;29;20249;-86
2023/11/11 04:25:46;;;;;;;9.47;4.07;;;7.90;1.00;;;;;;4953263;29;20177;-87
2023/11/11 04:28:12;;;;;;;11.37;4.17;;;7.90;1.00;;;;;;4962098;29;20537;-88
2023/11/11 04:30:37;;;;;;;6.57;4.13;;;7.90;1.00;;;;;;4964273;28;20819;-87
2023/11/11 04:33:03;;;;;;;8.40;4.00;;;8.00;1.00;;;;;;4962712;29;20189;-86
2023/11/11 04:35:28;;;;;;;7.20;2.70;;;8.00;1.00;;;;;;4964022;29;20222;-87
2023/11/11 04:37:54;;;;;;;4.83;3.10;;;7.90;1.00;;;;;;4961647;28;20217;-85
2023/11/11 04:40:21;;;;;;;8.23;3.23;;;7.90;1.00;;;;;;4962050;28;20217;-85
2023/11/11 04:42:47;;;;;;;8.23;3.60;;;8.00;1.00;;;;;;4956538;28;20200;-85
2023/11/11 04:45:12;;;;;;;13.63;3.50;;;8.00;1.00;;;;;;4963516;29;20177;-86
2023/11/11 04:47:38;;;;;;;6.40;3.87;;;8.00;1.00;;;;;;4962808;28;20535;-86
2023/11/11 04:50:04;;;;;;;9.97;6.20;;;8.00;1.00;;;;;;4954325;28;20246;-86
2023/11/11 04:52:31;;;;;;;12.15;7.18;;;8.00;1.00;;;;;;4962633;28;20204;-87
2023/11/11 04:54:56;;;;;;;13.75;7.60;;;8.00;1.00;;;;;;4963303;28;20192;-86
2023/11/11 04:57:22;;;;;;;8.70;7.80;;;8.00;1.00;;;;;;4963925;29;20213;-87
2023/11/11 04:59:47;;;;;;;12.93;8.00;;;8.00;1.00;;;;;;4950942;29;20222;-87
2023/11/11 05:02:13;;;;;;;17.43;6.97;;;7.90;1.00;;;;;;4956406;29;20186;-86
2023/11/11 05:04:39;;;;;;;11.37;7.60;;;7.90;1.00;;;;;;4966509;29;20188;-85
2023/11/11 05:07:04;;;;;;;9.57;5.70;;;7.90;1.00;;;;;;4963495;29;20452;-86
2023/11/11 05:09:30;;;;;;;11.03;6.73;;;7.80;1.00;;;;;;4967378;29;20208;-87
2023/11/11 05:11:56;;;;;;;14.13;7.80;;;7.80;1.00;;;;;;4965050;28;20181;-86
2023/11/11 05:14:23;;;;;;;11.77;7.55;;;7.70;1.00;;;;;;4945157;29;20476;-85
2023/11/11 05:16:52;;;;;;;15.90;8.55;;;7.60;1.00;;;;;;4953763;28;20199;-87
2023/11/11 05:19:18;;;;;;;10.95;8.30;;;7.60;1.00;;;;;;4959552;29;20189;-85
2023/11/11 05:21:44;;;;;;;16.93;9.10;;;7.50;1.00;;;;;;4960892;28;20237;-85
2023/11/11 05:24:10;;;;;;;11.50;8.00;;;7.50;1.00;;;;;;4960916;29;20974;-84
2023/11/11 05:26:38;;;;;;;17.80;9.68;;;7.50;1.00;;;;;;4955793;29;20190;-86
2023/11/11 05:29:04;;;;;;;13.60;8.07;;;7.40;1.00;;;;;;4957796;29;20233;-86
2023/11/11 05:31:31;;;;;;;12.53;8.20;;;7.40;1.00;;;;;;4956729;28;20614;-85
2023/11/11 05:33:57;;;;;;;18.48;9.60;;;7.40;1.00;;;;;;4958714;28;20468;-85
2023/11/11 05:36:24;;;;;;;13.65;8.57;;;7.40;1.00;;;;;;4962019;29;20193;-85
2023/11/11 05:38:49;;;;;;;16.00;9.00;;;7.30;1.00;;;;;;4948263;29;20660;-87
2023/11/11 05:41:15;;;;;;;15.67;8.83;;;7.30;1.00;;;;;;4962541;29;20193;-84
2023/11/11 05:43:41;;;;;;;15.90;8.77;;;7.30;1.00;;;;;;4958805;28;20197;-85
2023/11/11 05:46:09;;;;;;;14.60;7.90;;;7.40;1.00;;;;;;4958946;29;20276;-84
2023/11/11 05:48:38;;;;;;;11.02;7.38;;;7.40;1.00;;;;;;4954167;29;20210;-85
2023/11/11 05:51:07;;;;;;;11.95;7.50;;;7.40;1.00;;;;;;4957209;28;20792;-85
2023/11/11 05:53:33;;;;;;;9.68;6.82;;;7.40;1.00;;;;;;4952384;29;20691;-86
2023/11/11 05:55:59;;;;;;;12.32;6.45;;;7.40;1.00;;;;;;4961400;28;20185;-86
2023/11/11 05:58:25;;;;;;;13.38;6.82;;;7.40;1.00;;;;;;4959844;29;20205;-85
2023/11/11 06:00:51;;;;;;;16.17;6.55;;;7.30;1.00;;;;;;4946536;29;20193;-85
2023/11/11 06:03:18;;;;;;;16.35;7.03;;;7.30;1.00;;;;;;4951175;29;20201;-85
2023/11/11 06:05:45;;;;;;;13.05;6.90;;;7.30;1.00;;;;;;4955009;29;20563;-86
2023/11/11 06:08:11;;;;;;;16.05;8.50;;;7.20;1.00;;;;;;4960068;29;21011;-85
2023/11/11 06:10:38;;;;;;;11.80;6.47;;;7.20;1.00;;;;;;4961292;29;20198;-85
2023/11/11 06:13:07;;;;;;;13.55;7.78;;;7.20;1.00;;;;;;4947650;29;20249;-85
2023/11/11 06:15:34;;;;;;;17.50;8.07;;;7.10;1.00;;;;;;4953478;29;20189;-85
2023/11/11 06:18:00;;;;;;;10.90;7.68;;;7.10;1.00;;;;;;4955134;29;20213;-85
2023/11/11 06:20:26;;;;;;;13.63;7.40;;;7.10;1.00;;;;;;4957852;29;20221;-87
2023/11/11 06:22:53;;;;;;;12.10;7.93;;;7.10;1.00;;;;;;4952619;28;20189;-85
2023/11/11 06:25:19;;;;;;;15.60;8.32;;;7.00;1.00;;;;;;4950339;29;20186;-86
2023/11/11 06:27:48;;;;;;;11.88;7.70;;;7.00;1.00;;;;;;4958552;28;20209;-85
2023/11/11 06:30:16;;;;;;;14.13;9.63;;;6.90;1.00;;;;;;4962273;28;20236;-86
2023/11/11 06:32:43;;;;;;;19.60;9.30;;;6.90;1.00;;;;;;4957287;29;20173;-86
2023/11/11 06:35:11;;;;;;;17.20;9.43;;;6.80;1.00;;;;;;4964482;28;20672;-86
2023/11/11 06:37:36;;;;;;;22.75;10.68;;;6.80;1.00;;;;;;4954505;29;20193;-86
2023/11/11 06:40:03;;;;;;;15.30;9.30;;;6.80;1.00;;;;;;4960247;29;20193;-85
2023/11/11 06:42:29;;;;;;;20.08;10.75;;;6.80;1.00;;;;;;4962716;28;20196;-86
2023/11/11 06:44:56;;;;;;;17.42;10.50;;;6.80;1.00;;;;;;4959965;29;20615;-85
2023/11/11 06:47:22;;;;;;;21.73;10.18;;;6.70;1.00;;;;;;4955464;28;20210;-85
2023/11/11 06:49:47;;;;;;;18.73;11.73;;;6.70;1.00;;;;;;4952553;29;20218;-86
2023/11/11 06:52:13;;;;;;;19.13;10.63;;;6.70;1.00;;;;;;4959830;29;20340;-87
2023/11/11 06:54:39;;;;;;;20.37;11.13;;;6.70;1.00;;;;;;4960080;28;20189;-86
2023/11/11 06:57:07;;;;;;;23.75;12.52;;;6.70;1.00;;;;;;4963802;29;20438;-85
2023/11/11 06:59:33;;;;;;;25.92;12.55;;;6.80;1.00;;;;;;4952666;29;20200;-86
2023/11/11 07:01:58;;;;;;;19.70;11.30;;;6.80;1.00;;;;;;4963429;29;20727;-86
2023/11/11 07:04:24;;;;;;;18.23;11.17;;;7.00;1.00;;;;;;4977065;28;20218;-88
2023/11/11 07:06:51;;;;;;;19.63;11.43;;;7.10;1.00;;;;;;4971399;28;20270;-85
2023/11/11 07:09:20;;;;;;;19.88;11.63;;;7.30;1.00;;;;;;4963299;29;20177;-88
2023/11/11 07:11:47;;;;;;;20.80;10.35;;;7.40;1.00;;;;;;4973776;28;20286;-85
2023/11/11 07:14:12;;;;;;;17.52;11.05;;;7.60;1.00;;;;;;4973852;28;20174;-87
2023/11/11 07:16:39;;;;;;;22.10;11.50;;;7.60;1.00;;;;;;4965586;28;20197;-86
2023/11/11 07:19:05;;;;;;;20.15;11.25;;;7.80;1.00;;;;;;4974698;29;20443;-86
2023/11/11 07:21:31;;;;;;;16.87;10.17;;;7.90;1.00;;;;;;4966302;28;20189;-87
2023/11/11 07:23:57;;;;;;;19.10;9.90;;;8.20;1.00;;;;;;4972489;29;20951;-87
2023/11/11 07:26:22;;;;;;;24.30;10.40;;;8.60;1.00;;;;;;4973627;29;20200;-86
2023/11/11 07:28:48;;;;;;;16.93;9.50;;;9.20;99.90;;;;;;4975103;28;20971;-86
2023/11/11 07:31:15;;;;;;;16.80;9.87;;;10.20;1.00;;;;;;4961390;29;20234;-88
2023/11/11 07:33:42;;;;;;;15.77;9.00;;;11.20;1.00;;;;;;4964417;29;20441;-87
2023/11/11 07:36:09;;;;;;;12.70;8.10;;;12.00;62.30;;;;;;4973658;29;20425;-87
2023/11/11 07:38:35;;;;;;;14.47;8.33;;;13.20;99.90;;;;;;4970930;29;20462;-88
2023/11/11 07:41:01;;;;;;;15.87;8.40;;;14.20;1.00;;;;;;4962335;29;20441;-88
2023/11/11 07:43:26;;;;;;;14.37;9.33;;;13.60;1.00;;;;;;4969304;28;20546;-87
2023/11/11 07:45:52;;;;;;;17.60;8.33;;;12.70;1.00;;;;;;4967164;28;20241;-88
2023/11/11 07:48:18;;;;;;;12.43;8.20;;;12.00;1.00;;;;;;4968053;28;20210;-87
2023/11/11 07:50:46;;;;;;;13.57;7.80;;;12.90;13.60;;;;;;4974633;29;20229;-87
2023/11/11 07:53:14;;;;;;;12.73;6.87;;;14.00;1.00;;;;;;4972153;29;20445;-87
2023/11/11 07:55:40;;;;;;;11.03;7.00;;;14.30;1.00;;;;;;4966880;29;20428;-86
2023/11/11 07:58:06;;;;;;;15.53;7.40;;;15.10;1.00;;;;;;4974654;28;20454;-89
2023/11/11 08:00:33;;;;;;;15.07;7.40;;;15.40;1.00;;;;;;4976007;28;20204;-88
2023/11/11 08:02:59;;;;;;;9.97;7.47;;;14.60;1.00;;;;;;4994636;28;20171;-88
2023/11/11 08:05:28;;;;;;;14.63;8.03;;;14.00;1.00;;;;;;4979220;28;20421;-87
2023/11/11 08:07:56;;;;;;;12.17;8.33;;;13.30;1.00;;;;;;4972320;28;20452;-89
2023/11/11 08:10:23;;;;;;;19.37;8.70;;;12.80;1.00;;;;;;4976796;28;20453;-88
2023/11/11 08:12:51;;;;;;;12.13;7.30;;;13.10;1.00;;;;;;4980284;28;20420;-87
2023/11/11 08:15:18;;;;;;;14.30;7.67;;;12.80;1.00;;;;;;4978528;29;20417;-85
2023/11/11 08:17:47;;;;;;;17.30;8.47;;;12.70;1.00;;;;;;4964112;28;20500;-86
2023/11/11 08:20:16;;;;;;;17.93;8.50;;;12.50;1.00;;;;;;4979774;28;20441;-86
2023/11/11 08:22:42;;;;;;;13.10;8.10;;;12.20;1.00;;;;;;4966703;29;20453;-86
2023/11/11 08:25:13;;;;;;;14.10;9.37;;;11.70;1.00;;;;;;4989450;28;20437;-87
2023/11/11 08:27:42;;;;;;;15.03;9.30;;;11.40;99.90;;;;;;4973381;28;20456;-86
2023/11/11 08:30:13;;;;;;;15.13;9.07;;;10.90;99.90;;;;;;4990076;28;20496;-86
2023/11/11 08:32:44;;;;;;;20.20;8.80;;;10.70;1.00;;;;;;4974696;28;20488;-85
2023/11/11 08:35:24;;;;;;;16.20;9.60;;;10.50;99.90;;;;;;4989528;28;20452;-86
2023/11/11 08:37:49;;;;;;;22.80;10.90;;;10.30;1.00;;;;;;4973113;29;20453;-86
2023/11/11 08:40:17;;;;;;;14.83;9.13;;;10.20;99.90;;;;;;4976250;28;20470;-86
2023/11/11 08:42:43;;;;;;;14.53;9.23;;;10.20;1.00;;;;;;4990024;28;20273;-85
2023/11/11 08:45:13;;;;;;;15.03;9.20;;;10.20;1.00;;;;;;4965746;29;20456;-85
2023/11/11 08:47:39;;;;;;;18.43;9.33;;;10.10;1.00;;;;;;4973905;28;20471;-84
2023/11/11 08:50:51;;;;;;;19.20;10.17;;;10.10;4.30;;;;;;4974907;28;20441;-85
2023/11/11 08:57:00;;;;;;;16.40;9.10;;;10.30;1.00;;;;;;4926096;29;20531;-86
2023/11/11 08:59:25;;;;;;;16.13;10.47;;;10.80;1.00;;;;;;4959856;28;20476;-85
2023/11/11 09:05:14;;;;;;;14.40;8.03;;;10.70;99.90;;;;;;4904779;29;20202;-89
2023/11/11 09:07:39;;;;;;;12.20;7.87;;;10.60;1.00;;;;;;4887504;29;20475;-86
2023/11/11 09:11:06;;;;;;;16.93;7.63;;;10.60;31.70;;;;;;4940799;29;20222;-88
2023/11/11 09:13:33;;;;;;;14.33;8.73;;;10.60;99.90;;;;;;4948307;28;20197;-87
2023/11/11 09:15:59;;;;;;;11.47;7.50;;;10.40;99.90;;;;;;4963686;28;20962;-88
2023/11/11 09:18:47;;;;;;;14.73;8.53;;;10.30;99.90;;;;;;4949624;29;20457;-87
2023/11/11 09:21:12;;;;;;;18.27;8.50;;;10.20;1.00;;;;;;4953127;29;20187;-88
2023/11/11 09:23:38;;;;;;;12.87;7.97;;;10.20;1.00;;;;;;4977737;28;20818;-87
2023/11/11 09:26:05;;;;;;;14.60;7.67;;;10.20;99.90;;;;;;4945019;29;20189;-88
2023/11/11 09:28:34;;;;;;;14.20;8.30;;;10.20;67.50;;;;;;4957379;29;20221;-85
2023/11/11 09:31:00;;;;;;;16.50;7.40;;;10.20;1.00;;;;;;4955883;29;20470;-86
2023/11/11 09:33:25;;;;;;;10.30;7.33;;;10.30;1.00;;;;;;4954809;29;20449;-85
2023/11/11 09:35:55;;;;;;;10.83;7.50;;;10.60;99.90;;;;;;4956900;29;20251;-86
2023/11/11 09:38:20;;;;;;;11.23;6.93;;;10.90;13.10;;;;;;4958386;28;20205;-85
2023/11/11 09:40:46;;;;;;;13.10;7.23;;;11.00;1.00;;;;;;4965408;29;20500;-87
2023/11/11 09:43:12;;;;;;;10.13;6.63;;;11.40;99.90;;;;;;4964233;29;20262;-85
2023/11/11 09:45:37;;;;;;;14.50;6.77;;;12.00;1.00;;;;;;4976715;28;20549;-85
2023/11/11 09:48:04;;;;;;;15.70;7.67;;;12.50;99.90;;;;;;4957375;29;20507;-86
2023/11/11 09:50:31;;;;;;;14.10;7.90;;;12.50;99.90;;;;;;4956320;29;20259;-88
2023/11/11 09:52:57;;;;;;;14.20;7.13;;;12.60;92.90;;;;;;4945019;29;20442;-86
2023/11/11 09:55:23;;;;;;;11.07;6.60;;;12.70;17.40;;;;;;4953193;29;20784;-87
2023/11/11 09:57:49;;;;;;;9.67;7.03;;;12.70;1.00;;;;;;4970113;28;20437;-89
2023/11/11 10:00:16;;;;;;;9.63;6.53;;;13.10;1.00;;;;;;4967790;28;20506;-87
2023/11/11 10:02:42;;;;;;;17.47;6.50;;;13.10;1.00;;;;;;4970500;28;20444;-87
2023/11/11 10:05:10;;;;;;;11.73;6.37;;;13.00;1.00;;;;;;4955119;28;20813;-88
2023/11/11 10:07:40;;;;;;;9.87;5.90;;;13.00;1.00;;;;;;4954889;28;20212;-88
2023/11/11 10:10:09;;;;;;;10.10;6.20;;;13.20;1.00;;;;;;4952086;29;20849;-87
2023/11/11 10:12:37;;;;;;;11.90;6.37;;;13.00;1.00;;;;;;4946478;29;20420;-87
2023/11/11 10:15:04;;;;;;;8.80;6.00;;;12.70;1.00;;;;;;4954354;28;20428;-86
2023/11/11 10:17:34;;;;;;;8.47;5.27;;;12.40;1.00;;;;;;4935612;28;20872;-88
2023/11/11 10:20:04;;;;;;;13.20;6.30;;;12.30;1.00;;;;;;4940549;29;20537;-87
2023/11/11 10:22:29;;;;;;;10.17;6.23;;;12.00;1.00;;;;;;4955644;29;20452;-87
2023/11/11 10:24:56;;;;;;;11.33;6.50;;;11.90;22.70;;;;;;4963752;28;20421;-88
2023/11/11 10:27:22;;;;;;;10.10;6.33;;;12.00;74.80;;;;;;4956898;28;20205;-87
2023/11/11 10:29:50;;;;;;;7.80;5.27;;;12.00;72.20;;;;;;4954600;28;20494;-87
2023/11/11 10:32:16;;;;;;;8.70;5.90;;;11.90;99.90;;;;;;4951336;29;20645;-90
2023/11/11 10:34:42;;;;;;;11.63;7.13;;;11.80;99.90;;;;;;4952476;28;20448;-87
2023/11/11 10:37:07;;;;;;;9.70;5.40;;;11.80;99.90;;;;;;4944573;29;20461;-87
2023/11/11 10:39:34;;;;;;;12.57;5.93;;;11.80;99.90;;;;;;4940026;29;20245;-87
2023/11/11 10:42:04;;;;;;;11.97;6.70;;;11.90;99.90;;;;;;4960486;23;20229;-86
2023/11/11 10:44:32;;;;;;;12.40;5.70;;;12.00;99.90;;;;;;4965486;28;20477;-84
2023/11/11 10:46:58;;;;;;;8.90;5.40;;;12.10;99.90;;;;;;4951697;28;20429;-84
2023/11/11 10:49:33;;;;;;;9.37;5.67;;;12.20;96.00;;;;;;4949975;28;20477;-84
2023/11/11 10:52:00;;;;;;;8.40;4.80;;;12.60;47.80;;;;;;4951314;29;20453;-84
2023/11/11 10:54:26;;;;;;;13.73;5.03;;;13.70;1.00;;;;;;4947722;28;20425;-85
2023/11/11 10:57:00;;;;;;;7.90;4.40;;;14.10;1.00;;;;;;4950655;28;20456;-84
2023/11/11 10:59:28;;;;;;;13.13;5.47;;;15.20;1.00;;;;;;4951552;28;20452;-84
2023/11/11 11:01:59;;;;;;;9.67;5.83;;;15.40;99.90;;;;;;4951901;28;20457;-85
2023/11/11 11:04:34;;;;;;;7.97;4.80;;;15.40;99.90;;;;;;4939964;28;20449;-84
2023/11/11 11:07:29;;;;;;;11.40;5.20;;;15.00;99.90;;;;;;4943000;28;20445;-84
2023/11/11 11:10:17;;;;;;;9.80;4.87;;;14.50;99.90;;;;;;4960335;28;20504;-84
2023/11/11 11:12:58;;;;;;;8.90;4.70;;;14.10;99.90;;;;;;4954917;29;20441;-84
2023/11/11 11:15:36;;;;;;;6.40;4.47;;;13.80;99.90;;;;;;4955089;28;20821;-84
2023/11/11 11:18:02;;;;;;;11.60;4.03;;;13.70;99.90;;;;;;4961136;28;21326;-85
2023/11/11 11:20:27;;;;;;;12.40;5.37;;;14.30;99.90;;;;;;4942323;28;20451;-85
2023/11/11 11:23:00;;;;;;;9.80;4.57;;;14.10;99.90;;;;;;4940822;29;20546;-87
2023/11/11 11:25:43;;;;;;;9.57;4.60;;;14.00;99.90;;;;;;4948725;28;20201;-85
2023/11/11 11:28:14;;;;;;;9.47;4.03;;;14.00;99.90;;;;;;4953312;28;20533;-85
2023/11/11 11:30:55;;;;;;;9.17;3.80;;;13.70;99.90;;;;;;4943794;28;20484;-85
2023/11/11 11:33:31;;;;;;;10.20;4.40;;;13.50;99.90;;;;;;4942574;28;20481;-86
2023/11/11 11:36:01;;;;;;;5.13;3.73;;;13.50;99.90;;;;;;4944477;28;20476;-84
2023/11/11 11:38:38;;;;;;;5.20;4.03;;;13.60;1.00;;;;;;4949569;28;20451;-86
2023/11/11 11:41:11;;;;;;;6.13;3.73;;;14.00;99.90;;;;;;4954305;28;20477;-85
2023/11/11 11:43:39;;;;;;;6.00;3.37;;;14.30;99.90;;;;;;4957820;28;20445;-87
2023/11/11 11:46:05;;;;;;;10.67;3.60;;;14.60;99.90;;;;;;4956628;28;20448;-85
2023/11/11 11:48:37;;;;;;;8.60;3.40;;;14.80;99.90;;;;;;4954525;29;20422;-85
2023/11/11 11:51:14;;;;;;;7.13;3.53;;;14.70;99.90;;;;;;4973106;28;20571;-85
2023/11/11 11:53:42;;;;;;;10.13;4.40;;;14.60;99.90;;;;;;4955184;28;20422;-86
2023/11/11 11:56:11;;;;;;;11.77;3.90;;;14.40;99.90;;;;;;4957971;28;20432;-85
2023/11/11 11:58:48;;;;;;;15.20;3.90;;;14.10;99.90;;;;;;4955044;28;20489;-85
2023/11/11 12:01:31;;;;;;;12.93;3.60;;;13.60;99.90;;;;;;4958018;28;20468;-85
2023/11/11 12:03:58;;;;;;;10.30;3.97;;;13.30;99.90;;;;;;4972803;28;20793;-87
2023/11/11 12:06:26;;;;;;;7.73;3.57;;;12.90;99.90;;;;;;4953939;28;20438;-85
2023/11/11 12:08:57;;;;;;;7.90;3.90;;;12.60;1.00;;;;;;4956701;28;20433;-85
2023/11/11 12:11:26;;;;;;;7.70;3.50;;;12.50;1.00;;;;;;4953544;29;20512;-85
2023/11/11 12:13:55;;;;;;;4.70;2.83;;;12.60;1.00;;;;;;4971293;28;20433;-85
2023/11/11 12:16:38;;;;;;;9.50;3.73;;;13.90;1.00;;;;;;4953701;28;20517;-86
2023/11/11 12:19:14;;;;;;;10.67;2.70;;;14.80;99.90;;;;;;4951490;29;20443;-85
2023/11/11 12:21:45;;;;;;;5.50;2.90;;;14.80;99.90;;;;;;4951400;28;20472;-85
2023/11/11 12:24:16;;;;;;;8.23;3.27;;;14.60;99.90;;;;;;4937639;29;20485;-85
2023/11/11 12:26:43;;;;;;;7.07;2.70;;;14.30;99.90;;;;;;4944083;28;20433;-86
2023/11/11 12:29:09;;;;;;;12.20;3.40;;;14.10;99.90;;;;;;4953497;28;20455;-85
2023/11/11 12:31:48;;;;;;;4.30;2.67;;;13.80;99.90;;;;;;4957692;28;20858;-85
2023/11/11 12:34:17;;;;;;;4.00;2.53;;;13.60;99.90;;;;;;4940922;29;20493;-85
2023/11/11 12:36:52;;;;;;;8.80;2.47;;;13.40;99.90;;;;;;4969817;28;20460;-86
2023/11/11 12:39:18;;;;;;;2.63;1.83;;;13.60;99.90;;;;;;4945886;29;20529;-85
2023/11/11 12:42:03;;;;;;;3.70;1.60;;;14.70;99.90;;;;;;4960639;28;20700;-85
2023/11/11 12:44:38;;;;;;;5.20;2.10;;;15.90;99.90;;;;;;4935898;29;20449;-86
2023/11/11 12:47:09;;;;;;;3.53;1.60;;;16.50;99.90;;;;;;4937668;29;20434;-85
2023/11/11 12:49:36;;;;;;;3.40;2.00;;;17.10;99.90;;;;;;4959633;28;20449;-86
2023/11/11 12:52:13;;;;;;;2.63;1.83;;;17.40;99.90;;;;;;4968746;28;20830;-85
2023/11/11 12:54:39;;;;;;;5.97;2.03;;;17.60;99.90;;;;;;4955476;29;20507;-85
2023/11/11 12:57:04;;;;;;;3.63;1.90;;;17.80;99.90;;;;;;4938139;29;20509;-85